createdAt,value
2023-03-12T00:00:54.075Z,57.73
2023-03-12T00:06:11.292Z,63.79
2023-03-12T00:11:17.976Z,65.17
2023-03-12T00:16:22.177Z,59.04
2023-03-12T00:21:24.729Z,56.30
2023-03-12T00:26:26.918Z,63.08
2023-03-12T00:31:32.350Z,63.39
2023-03-12T00:36:34.359Z,59.06
2023-03-12T00:41:36.160Z,58.77
2023-03-12T00:46:38.037Z,62.16
2023-03-12T00:51:39.895Z,65.87
2023-03-12T00:56:41.649Z,61.94
2023-03-12T01:01:43.847Z,58.02
2023-03-12T01:06:45.715Z,61.82
2023-03-12T01:11:47.385Z,63.94
2023-03-12T01:16:50.865Z,58.59
2023-03-12T01:21:54.213Z,62.86
2023-03-12T01:26:56.201Z,63.81
2023-03-12T01:31:57.981Z,59.80
2023-03-12T01:36:59.649Z,63.39
2023-03-12T01:42:01.835Z,60.42
2023-03-12T01:47:03.600Z,59.17
2023-03-12T01:52:12.083Z,64.07
2023-03-12T01:57:51.899Z,61.55
2023-03-12T02:03:00.113Z,59.68
2023-03-12T02:08:01.809Z,63.34
2023-03-12T02:13:03.519Z,63.35
2023-03-12T02:18:09.132Z,60.55
2023-03-12T02:23:21.265Z,59.38
2023-03-12T02:28:29.102Z,63.85
2023-03-12T02:33:30.741Z,63.06
2023-03-12T02:38:41.833Z,60.74
2023-03-12T02:44:12.449Z,59.64
2023-03-12T02:49:16.572Z,59.94
2023-03-12T02:54:22.593Z,64.22
2023-03-12T02:59:28.266Z,61.62
2023-03-12T03:04:34.437Z,61.12
2023-03-12T03:09:36.236Z,60.88
2023-03-12T03:14:38.000Z,59.95
2023-03-12T03:19:39.707Z,62.31
2023-03-12T03:24:41.751Z,63.41
2023-03-12T03:29:46.095Z,61.14
2023-03-12T03:34:47.888Z,59.79
2023-03-12T03:39:49.729Z,63.02
2023-03-12T03:44:51.326Z,61.46
2023-03-12T03:49:52.979Z,59.70
2023-03-12T03:54:56.597Z,62.70
2023-03-12T04:00:03.516Z,58.66
2023-03-12T04:05:06.611Z,62.97
2023-03-12T04:10:09.697Z,59.75
2023-03-12T04:15:11.471Z,61.74
2023-03-12T04:20:14.015Z,60.42
2023-03-12T04:25:16.045Z,59.54
2023-03-12T04:30:17.847Z,62.71
2023-03-12T04:35:20.529Z,58.86
2023-03-12T04:40:22.396Z,63.77
2023-03-12T04:45:24.177Z,61.11
2023-03-12T04:50:25.949Z,57.90
2023-03-12T04:55:27.628Z,63.61
2023-03-12T05:00:29.784Z,60.22
2023-03-12T05:05:31.690Z,59.45
2023-03-12T05:10:34.190Z,63.85
2023-03-12T05:15:37.089Z,59.26
2023-03-12T05:20:39.886Z,59.48
2023-03-12T05:25:41.550Z,63.54
2023-03-12T05:30:43.242Z,58.61
2023-03-12T05:35:44.916Z,61.51
2023-03-12T05:40:55.501Z,62.98
2023-03-12T05:46:04.808Z,59.73
2023-03-12T05:51:06.916Z,63.97
2023-03-12T05:56:14.262Z,58.46
2023-03-12T06:01:23.659Z,61.99
2023-03-12T06:06:25.757Z,59.40
2023-03-12T06:11:27.529Z,60.06
2023-03-12T06:16:29.654Z,62.64
2023-03-12T06:21:35.723Z,57.71
2023-03-12T06:26:38.073Z,62.65
2023-03-12T06:31:41.613Z,59.40
2023-03-12T06:36:44.184Z,59.74
2023-03-12T06:41:45.878Z,62.31
2023-03-12T06:46:48.209Z,57.78
2023-03-12T06:51:50.661Z,61.00
2023-03-12T06:56:52.724Z,61.52
2023-03-12T07:01:54.959Z,58.24
2023-03-12T07:06:56.899Z,62.24
2023-03-12T07:11:58.667Z,59.95
2023-03-12T07:17:02.008Z,58.61
2023-03-12T07:22:04.077Z,62.19
2023-03-12T07:27:06.051Z,58.55
2023-03-12T07:32:08.078Z,59.27
2023-03-12T07:37:09.917Z,62.28
2023-03-12T07:42:12.416Z,56.31
2023-03-12T07:47:23.617Z,56.38
2023-03-12T07:52:26.633Z,60.86
2023-03-12T07:57:28.728Z,62.21
2023-03-12T08:02:30.693Z,58.36
2023-03-12T08:07:34.698Z,57.62
2023-03-12T08:12:37.330Z,60.07
2023-03-12T08:17:40.397Z,61.52
2023-03-12T08:22:42.185Z,61.74
2023-03-12T08:27:44.030Z,62.26
2023-03-12T08:32:46.550Z,60.31
2023-03-12T08:37:48.431Z,57.04
2023-03-12T08:42:50.279Z,59.35
2023-03-12T08:47:52.262Z,61.53
2023-03-12T08:52:54.025Z,59.02
2023-03-12T08:57:57.134Z,54.99
2023-03-12T09:02:59.144Z,57.47
2023-03-12T09:08:00.991Z,58.94
2023-03-12T09:13:04.338Z,59.45
2023-03-12T09:18:06.188Z,60.97
2023-03-12T09:23:07.972Z,60.33
2023-03-12T09:28:09.933Z,58.59
2023-03-12T09:33:14.609Z,58.27
2023-03-12T09:38:16.346Z,57.71
2023-03-12T09:43:37.070Z,57.30
2023-03-12T09:48:40.171Z,55.58
2023-03-12T09:53:48.753Z,56.61
2023-03-12T09:58:54.167Z,56.13
2023-03-12T10:04:14.329Z,55.19
2023-03-12T10:09:34.196Z,55.02
2023-03-12T10:15:25.924Z,54.34
2023-03-12T10:20:51.161Z,54.51
2023-03-12T10:26:17.921Z,57.28
2023-03-12T10:31:30.725Z,64.95
2023-03-12T10:36:41.019Z,59.06
2023-03-12T10:41:46.596Z,62.43
2023-03-12T10:47:33.223Z,59.57
2023-03-12T10:52:35.063Z,59.00
2023-03-12T10:57:42.108Z,61.07
2023-03-12T11:02:48.245Z,60.52
2023-03-12T11:07:50.929Z,60.21
2023-03-12T11:13:02.244Z,57.76
2023-03-12T11:18:31.739Z,56.94
2023-03-12T11:23:34.335Z,53.36
2023-03-12T11:28:45.940Z,51.04
2023-03-12T11:33:48.176Z,50.12
2023-03-12T11:39:06.476Z,50.45
2023-03-12T11:44:38.676Z,52.27
2023-03-12T11:50:08.753Z,54.56
2023-03-12T11:55:25.997Z,54.65
2023-03-12T12:00:51.234Z,53.34
2023-03-12T12:06:43.306Z,52.44
2023-03-12T12:12:06.144Z,50.24
2023-03-12T12:17:23.694Z,50.10
2023-03-12T12:22:42.564Z,49.36
2023-03-12T12:27:59.907Z,48.70
2023-03-12T12:33:35.790Z,47.36
2023-03-12T12:38:46.869Z,47.35
2023-03-12T12:43:57.662Z,47.73
2023-03-12T12:49:23.409Z,47.50
2023-03-12T12:54:44.433Z,48.22
2023-03-12T13:00:10.677Z,47.67
2023-03-12T13:05:36.421Z,47.65
2023-03-12T13:10:48.775Z,47.88
2023-03-12T13:16:42.223Z,48.11
2023-03-12T13:22:16.978Z,48.59
2023-03-12T13:27:45.808Z,47.76
2023-03-12T13:32:47.387Z,48.60
2023-03-12T13:37:52.213Z,48.83
2023-03-12T13:43:09.435Z,49.18
2023-03-12T13:48:17.665Z,49.25
2023-03-12T13:53:46.783Z,50.53
2023-03-12T13:59:02.171Z,50.93
2023-03-12T14:04:11.825Z,50.75
2023-03-12T14:09:40.457Z,51.20
2023-03-12T14:15:06.996Z,49.81
2023-03-12T14:20:22.610Z,48.96
2023-03-12T14:25:43.165Z,47.60
2023-03-12T14:31:12.383Z,46.43
2023-03-12T14:36:27.511Z,46.98
2023-03-12T14:41:35.066Z,46.62
2023-03-12T14:46:36.867Z,47.28
2023-03-12T14:51:39.565Z,47.15
2023-03-12T14:56:44.176Z,47.10
2023-03-12T15:01:47.912Z,47.57
2023-03-12T15:06:58.535Z,47.47
2023-03-12T15:12:28.883Z,47.42
2023-03-12T15:17:31.893Z,47.68
2023-03-12T15:22:35.711Z,48.95
2023-03-12T15:27:37.486Z,49.10
2023-03-12T15:32:39.597Z,49.20
2023-03-12T15:37:52.812Z,49.62
2023-03-12T15:43:01.339Z,49.98
2023-03-12T15:48:24.770Z,50.43
2023-03-12T15:53:31.715Z,50.37
2023-03-12T15:58:38.621Z,50.64
2023-03-12T16:03:44.908Z,50.76
2023-03-12T16:08:58.250Z,50.89
2023-03-12T16:14:17.134Z,50.55
2023-03-12T16:19:22.907Z,50.77
2023-03-12T16:24:24.778Z,51.20
2023-03-12T16:29:37.716Z,52.24
2023-03-12T16:34:40.105Z,52.47
2023-03-12T16:39:45.961Z,52.13
2023-03-12T16:44:48.268Z,52.54
2023-03-12T16:49:50.546Z,53.13
2023-03-12T16:54:52.721Z,53.80
2023-03-12T16:59:54.814Z,54.59
2023-03-12T17:04:56.885Z,55.28
2023-03-12T17:09:58.884Z,55.58
2023-03-12T17:15:04.560Z,56.06
2023-03-12T17:20:09.694Z,56.49
2023-03-12T17:25:28.323Z,56.89
2023-03-12T17:30:31.461Z,57.21
2023-03-12T17:35:34.807Z,57.74
2023-03-12T17:40:42.555Z,58.33
2023-03-12T17:45:44.467Z,58.74
2023-03-12T17:50:46.349Z,58.92
2023-03-12T17:55:48.448Z,59.32
2023-03-12T18:00:50.312Z,59.40
2023-03-12T18:05:52.287Z,59.43
2023-03-12T18:10:54.886Z,59.42
2023-03-12T18:15:59.991Z,59.20
2023-03-12T18:21:01.812Z,59.48
2023-03-12T18:26:05.038Z,59.92
2023-03-12T18:31:06.751Z,60.39
2023-03-12T18:36:09.297Z,60.68
2023-03-12T18:41:13.418Z,60.72
2023-03-12T18:46:15.434Z,60.78
2023-03-12T18:51:17.693Z,60.83
2023-03-12T18:56:19.506Z,60.99
2023-03-12T19:01:21.456Z,61.28
2023-03-12T19:06:23.375Z,61.67
2023-03-12T19:11:26.021Z,61.89
2023-03-12T19:16:28.995Z,61.98
2023-03-12T19:21:31.008Z,71.73
2023-03-12T19:26:33.205Z,74.95
2023-03-12T19:31:35.074Z,63.78
2023-03-12T19:36:37.059Z,50.67
2023-03-12T19:41:40.372Z,47.51
2023-03-12T19:46:42.847Z,48.01
2023-03-12T19:51:44.726Z,49.88
2023-03-12T19:56:46.495Z,51.01
2023-03-12T20:01:48.410Z,52.49
2023-03-12T20:06:50.464Z,53.65
2023-03-12T20:11:52.351Z,54.84
2023-03-12T20:16:54.206Z,55.72
2023-03-12T20:21:56.799Z,56.56
2023-03-12T20:26:58.572Z,57.63
2023-03-12T20:32:00.575Z,58.31
2023-03-12T20:37:02.534Z,58.90
2023-03-12T20:42:04.619Z,59.41
2023-03-12T20:47:06.501Z,59.77
2023-03-12T20:52:08.377Z,60.26
2023-03-12T20:57:10.151Z,60.63
2023-03-12T21:02:14.480Z,60.98
2023-03-12T21:07:16.475Z,61.27
2023-03-12T21:12:18.469Z,61.57
2023-03-12T21:17:20.324Z,70.87
2023-03-12T21:22:22.103Z,75.86
2023-03-12T21:27:24.544Z,65.29
2023-03-12T21:32:27.077Z,53.54
2023-03-12T21:37:28.860Z,50.35
2023-03-12T21:42:33.093Z,51.03
2023-03-12T21:47:39.184Z,52.02
2023-03-12T21:52:47.087Z,53.09
2023-03-12T21:57:48.764Z,54.24
2023-03-12T22:02:53.295Z,55.97
2023-03-12T22:07:55.278Z,57.32
2023-03-12T22:12:56.955Z,57.76
2023-03-12T22:17:58.722Z,58.29
2023-03-12T22:23:00.942Z,58.90
2023-03-12T22:28:02.785Z,59.50
2023-03-12T22:33:04.594Z,60.03
2023-03-12T22:38:06.235Z,60.41
2023-03-12T22:43:08.636Z,60.98
2023-03-12T22:48:10.409Z,61.31
2023-03-12T22:53:12.170Z,69.10
2023-03-12T22:58:14.658Z,74.77
2023-03-12T23:03:16.336Z,68.06
2023-03-12T23:08:18.131Z,61.67
2023-03-12T23:13:20.909Z,52.15
2023-03-12T23:18:22.592Z,49.95
2023-03-12T23:23:24.356Z,50.73
2023-03-12T23:28:29.256Z,51.91
2023-03-12T23:33:33.512Z,53.15
2023-03-12T23:38:37.669Z,54.25
2023-03-12T23:43:40.160Z,55.41
2023-03-12T23:48:43.478Z,56.45
2023-03-12T23:53:48.336Z,57.48
2023-03-12T23:58:51.042Z,58.58
